PWSweather.com
Personal Weather Stations
Station Observations
BAYPARK
Bay Park, Ny, East Rockaway, NY 11518

Bay Park, NyEast Rockaway, NY 11518

Lat: 40.6310098, Lon: -73.6727287

Elevation: 11

Station Type: AcuRite Pro

https://www.awekas.at/en/instrument.php?id=14894

High Low Average
Temperature 68.7°F20.4°C 60.1°F15.6°C 63.2°F17.3°C
Dew Point 60.5°F15.8°C 55.4°F13.0°C 57.9°F14.4°C
Winds 4.5 mph 7.2 kmh Calm Calm 2.0 mph SE3.2 kmh SE
Wind Gusts 9.4 mph15.1 kmh -- 4.0 mph6.4 kmh
Humidity 96% 68% 83%
Pressure 30.06 in1017.9 mb 29.75 in1007.5 mb -
Precipitation 0.39 in9.9 mm - -
Hour Temp Dew Point Humidity Winds Wind Gusts Pressure Precip Precip Rate Daily Precip Total
12:00 AM 63.1°F17.3°C 59.3°F15.2°C 88% Calm Calm -- 30.06 in1017.9 mb 0.00 in0.0 mm 0.00 in0.0 mm 0.00 in0.0 mm
12:05 AM 63.1°F17.3°C 59.2°F15.1°C 87% Calm Calm -- 30.06 in1017.9 mb 0.00 in0.0 mm 0.00 in0.0 mm 0.00 in0.0 mm
12:10 AM 63.3°F17.4°C 59.0°F15.0°C 86% Calm Calm -- 30.06 in1017.9 mb 0.00 in0.0 mm 0.00 in0.0 mm 0.00 in0.0 mm
12:15 AM 63.3°F17.4°C 59.0°F15.0°C 86% Calm Calm -- 30.05 in1017.6 mb 0.00 in0.0 mm 0.00 in0.0 mm 0.00 in0.0 mm
12:20 AM 63.3°F17.4°C 58.9°F14.9°C 86% Calm Calm -- 30.05 in1017.6 mb 0.00 in0.0 mm 0.00 in0.0 mm 0.00 in0.0 mm
12:25 AM 63.2°F17.3°C 58.7°F14.8°C 85% Calm Calm -- 30.05 in1017.6 mb 0.00 in0.0 mm 0.00 in0.0 mm 0.00 in0.0 mm
12:30 AM 63.1°F17.3°C 58.5°F14.7°C 85% Calm Calm -- 30.05 in1017.6 mb 0.00 in0.0 mm 0.00 in0.0 mm 0.00 in0.0 mm
12:35 AM 63.1°F17.3°C 58.5°F14.7°C 85% Calm Calm -- 30.05 in1017.6 mb 0.00 in0.0 mm 0.00 in0.0 mm 0.00 in0.0 mm
12:40 AM 63.1°F17.3°C 58.5°F14.7°C 85% Calm Calm -- 30.05 in1017.6 mb 0.00 in0.0 mm 0.00 in0.0 mm 0.00 in0.0 mm
12:45 AM 63.1°F17.3°C 58.5°F14.7°C 85% Calm Calm -- 30.05 in1017.6 mb 0.00 in0.0 mm 0.00 in0.0 mm 0.00 in0.0 mm
12:50 AM 63.1°F17.3°C 58.5°F14.7°C 85% Calm Calm -- 30.04 in1017.3 mb 0.00 in0.0 mm 0.00 in0.0 mm 0.00 in0.0 mm
12:55 AM 63.0°F17.2°C 58.4°F14.7°C 85% Calm Calm -- 30.04 in1017.3 mb 0.00 in0.0 mm 0.00 in0.0 mm 0.00 in0.0 mm
01:00 AM 63.0°F17.2°C 58.4°F14.7°C 85% Calm Calm -- 30.04 in1017.3 mb 0.00 in0.0 mm 0.00 in0.0 mm 0.00 in0.0 mm
01:05 AM 63.0°F17.2°C 58.1°F14.5°C 84% Calm Calm -- 30.04 in1017.3 mb 0.00 in0.0 mm 0.00 in0.0 mm 0.00 in0.0 mm
01:10 AM 63.0°F17.2°C 58.1°F14.5°C 84% Calm Calm -- 30.04 in1017.3 mb 0.00 in0.0 mm 0.00 in0.0 mm 0.00 in0.0 mm
01:15 AM 63.0°F17.2°C 58.1°F14.5°C 84% Calm Calm -- 30.04 in1017.3 mb 0.00 in0.0 mm 0.00 in0.0 mm 0.00 in0.0 mm
01:20 AM 63.0°F17.2°C 58.1°F14.5°C 84% 0.1 mph N0.2 kmh N 1.7 mph2.7 kmh 30.04 in1017.3 mb 0.00 in0.0 mm 0.00 in0.0 mm 0.00 in0.0 mm
01:25 AM 63.0°F17.2°C 57.8°F14.3°C 83% Calm Calm -- 30.04 in1017.3 mb 0.00 in0.0 mm 0.00 in0.0 mm 0.00 in0.0 mm
01:30 AM 63.1°F17.3°C 57.8°F14.3°C 83% Calm Calm -- 30.03 in1016.9 mb 0.00 in0.0 mm 0.00 in0.0 mm 0.00 in0.0 mm
01:35 AM 63.2°F17.3°C 57.7°F14.3°C 82% Calm Calm -- 30.03 in1016.9 mb 0.00 in0.0 mm 0.00 in0.0 mm 0.00 in0.0 mm
01:40 AM 63.1°F17.3°C 57.5°F14.2°C 82% Calm Calm -- 30.03 in1016.9 mb 0.00 in0.0 mm 0.00 in0.0 mm 0.00 in0.0 mm
01:45 AM 63.2°F17.3°C 57.5°F14.2°C 82% 0.7 mph SE1.1 kmh SE 4.2 mph6.8 kmh 30.03 in1016.9 mb 0.00 in0.0 mm 0.00 in0.0 mm 0.00 in0.0 mm
01:50 AM 63.3°F17.4°C 57.4°F14.1°C 81% Calm Calm -- 30.03 in1016.9 mb 0.00 in0.0 mm 0.00 in0.0 mm 0.00 in0.0 mm
01:55 AM 63.4°F17.4°C 57.5°F14.2°C 81% Calm Calm -- 30.02 in1016.6 mb 0.00 in0.0 mm 0.00 in0.0 mm 0.00 in0.0 mm
02:00 AM 63.5°F17.5°C 57.3°F14.1°C 80% 0.3 mph SE0.5 kmh SE 2.2 mph3.5 kmh 30.02 in1016.6 mb 0.00 in0.0 mm 0.00 in0.0 mm 0.00 in0.0 mm
02:05 AM 63.7°F17.6°C 57.1°F13.9°C 79% Calm Calm -- 30.02 in1016.6 mb 0.00 in0.0 mm 0.00 in0.0 mm 0.00 in0.0 mm
02:10 AM 63.8°F17.7°C 57.1°F13.9°C 79% Calm Calm -- 30.02 in1016.6 mb 0.00 in0.0 mm 0.00 in0.0 mm 0.00 in0.0 mm
02:15 AM 63.9°F17.7°C 57.3°F14.1°C 79% Calm Calm -- 30.02 in1016.6 mb 0.00 in0.0 mm 0.00 in0.0 mm 0.00 in0.0 mm
02:20 AM 63.9°F17.7°C 56.8°F13.8°C 78% 0.2 mph S0.3 kmh S 2.2 mph3.5 kmh 30.02 in1016.6 mb 0.00 in0.0 mm 0.00 in0.0 mm 0.00 in0.0 mm
02:25 AM 63.9°F17.7°C 56.5°F13.6°C 77% 1.0 mph SE1.6 kmh SE 2.7 mph4.3 kmh 30.02 in1016.6 mb 0.00 in0.0 mm 0.00 in0.0 mm 0.00 in0.0 mm
02:30 AM 63.9°F17.7°C 56.5°F13.6°C 77% 0.2 mph W0.3 kmh W 2.2 mph3.5 kmh 30.02 in1016.6 mb 0.00 in0.0 mm 0.00 in0.0 mm 0.00 in0.0 mm
02:35 AM 63.9°F17.7°C 56.5°F13.6°C 77% 0.4 mph ESE0.6 kmh ESE 2.2 mph3.5 kmh 30.02 in1016.6 mb 0.00 in0.0 mm 0.00 in0.0 mm 0.00 in0.0 mm
02:40 AM 63.9°F17.7°C 56.5°F13.6°C 77% Calm Calm -- 30.01 in1016.3 mb 0.00 in0.0 mm 0.00 in0.0 mm 0.00 in0.0 mm
02:45 AM 63.9°F17.7°C 56.5°F13.6°C 77% 0.2 mph WNW0.3 kmh WNW 1.7 mph2.7 kmh 30.01 in1016.3 mb 0.00 in0.0 mm 0.00 in0.0 mm 0.00 in0.0 mm
02:50 AM 63.8°F17.7°C 56.2°F13.4°C 76% 1.1 mph SE1.8 kmh SE 2.7 mph4.3 kmh 30.01 in1016.3 mb 0.00 in0.0 mm 0.00 in0.0 mm 0.00 in0.0 mm
02:55 AM 63.7°F17.6°C 56.2°F13.4°C 77% Calm Calm -- 30.01 in1016.3 mb 0.00 in0.0 mm 0.00 in0.0 mm 0.00 in0.0 mm
03:00 AM 63.7°F17.6°C 56.3°F13.5°C 77% 0.6 mph NW1.0 kmh NW 2.7 mph4.3 kmh 30.01 in1016.3 mb 0.00 in0.0 mm 0.00 in0.0 mm 0.00 in0.0 mm
03:05 AM 63.7°F17.6°C 56.0°F13.3°C 76% Calm Calm -- 30.01 in1016.3 mb 0.00 in0.0 mm 0.00 in0.0 mm 0.00 in0.0 mm
03:10 AM 63.7°F17.6°C 56.3°F13.5°C 77% 0.2 mph SW0.3 kmh SW 1.7 mph2.7 kmh 30.01 in1016.3 mb 0.00 in0.0 mm 0.00 in0.0 mm 0.00 in0.0 mm
03:15 AM 63.7°F17.6°C 56.3°F13.5°C 77% 1.2 mph E1.9 kmh E 2.7 mph4.3 kmh 30.01 in1016.3 mb 0.00 in0.0 mm 0.00 in0.0 mm 0.00 in0.0 mm
03:20 AM 63.6°F17.6°C 56.2°F13.4°C 77% 0.9 mph SE1.4 kmh SE 3.2 mph5.1 kmh 30.01 in1016.3 mb 0.00 in0.0 mm 0.00 in0.0 mm 0.00 in0.0 mm
03:25 AM 63.5°F17.5°C 56.4°F13.6°C 78% Calm Calm -- 30.01 in1016.3 mb 0.00 in0.0 mm 0.00 in0.0 mm 0.00 in0.0 mm
03:30 AM 63.5°F17.5°C 56.5°F13.6°C 78% 1.0 mph S1.6 kmh S 2.7 mph4.3 kmh 30.01 in1016.3 mb 0.00 in0.0 mm 0.00 in0.0 mm 0.00 in0.0 mm
03:35 AM 63.5°F17.5°C 56.5°F13.6°C 78% 0.1 mph S0.2 kmh S 1.1 mph1.8 kmh 30.01 in1016.3 mb 0.00 in0.0 mm 0.00 in0.0 mm 0.00 in0.0 mm
03:40 AM 63.5°F17.5°C 56.5°F13.6°C 78% 0.9 mph SE1.4 kmh SE 2.2 mph3.5 kmh 30.01 in1016.3 mb 0.00 in0.0 mm 0.00 in0.0 mm 0.00 in0.0 mm
03:45 AM 63.7°F17.6°C 56.7°F13.7°C 78% 1.4 mph WNW2.3 kmh WNW 2.2 mph3.5 kmh 30.01 in1016.3 mb 0.00 in0.0 mm 0.00 in0.0 mm 0.00 in0.0 mm
03:50 AM 63.7°F17.6°C 56.7°F13.7°C 78% 0.2 mph W0.3 kmh W 1.7 mph2.7 kmh 30.01 in1016.3 mb 0.00 in0.0 mm 0.00 in0.0 mm 0.00 in0.0 mm
03:55 AM 63.8°F17.7°C 56.8°F13.8°C 78% 0.6 mph SW1.0 kmh SW 2.7 mph4.3 kmh 30.01 in1016.3 mb 0.00 in0.0 mm 0.00 in0.0 mm 0.00 in0.0 mm
04:00 AM 63.9°F17.7°C 57.1°F13.9°C 79% 0.8 mph SE1.3 kmh SE 2.2 mph3.5 kmh 30.01 in1016.3 mb 0.00 in0.0 mm 0.00 in0.0 mm 0.00 in0.0 mm
04:05 AM 63.8°F17.7°C 57.4°F14.1°C 80% 1.6 mph SSE2.6 kmh SSE 2.7 mph4.3 kmh 30.01 in1016.3 mb 0.00 in0.0 mm 0.00 in0.0 mm 0.00 in0.0 mm
04:10 AM 63.7°F17.6°C 57.5°F14.2°C 80% 0.2 mph SE0.3 kmh SE 2.7 mph4.3 kmh 30.01 in1016.3 mb 0.00 in0.0 mm 0.00 in0.0 mm 0.00 in0.0 mm
04:15 AM 63.7°F17.6°C 57.9°F14.4°C 81% 0.7 mph ESE1.1 kmh ESE 2.7 mph4.3 kmh 30.01 in1016.3 mb 0.00 in0.0 mm 0.00 in0.0 mm 0.00 in0.0 mm
04:20 AM 63.7°F17.6°C 58.1°F14.5°C 82% 1.2 mph SE1.9 kmh SE 3.2 mph5.1 kmh 30.01 in1016.3 mb 0.00 in0.0 mm 0.00 in0.0 mm 0.00 in0.0 mm
04:25 AM 64.0°F17.8°C 58.6°F14.8°C 83% 1.8 mph WSW2.9 kmh WSW 3.2 mph5.1 kmh 30.01 in1016.3 mb 0.00 in0.0 mm 0.00 in0.0 mm 0.00 in0.0 mm
04:30 AM 64.0°F17.8°C 58.7°F14.8°C 83% 1.1 mph SE1.8 kmh SE 2.2 mph3.5 kmh 30.00 in1015.9 mb 0.00 in0.0 mm 0.00 in0.0 mm 0.00 in0.0 mm
04:35 AM 64.1°F17.8°C 58.8°F14.9°C 83% 0.8 mph S1.3 kmh S 2.7 mph4.3 kmh 30.00 in1015.9 mb 0.00 in0.0 mm 0.00 in0.0 mm 0.00 in0.0 mm
04:40 AM 64.2°F17.9°C 59.2°F15.1°C 84% 1.2 mph SE1.9 kmh SE 2.7 mph4.3 kmh 30.00 in1015.9 mb 0.00 in0.0 mm 0.00 in0.0 mm 0.00 in0.0 mm
04:45 AM 64.3°F17.9°C 59.3°F15.2°C 84% 0.9 mph S1.4 kmh S 2.2 mph3.5 kmh 30.00 in1015.9 mb 0.00 in0.0 mm 0.00 in0.0 mm 0.00 in0.0 mm
04:50 AM 64.4°F18.0°C 59.5°F15.3°C 84% 1.8 mph SE2.9 kmh SE 3.7 mph6.0 kmh 30.00 in1015.9 mb 0.00 in0.0 mm 0.00 in0.0 mm 0.00 in0.0 mm
04:55 AM 64.4°F18.0°C 59.5°F15.3°C 84% 2.0 mph SE3.2 kmh SE 3.7 mph6.0 kmh 30.00 in1015.9 mb 0.00 in0.0 mm 0.00 in0.0 mm 0.00 in0.0 mm
05:00 AM 64.6°F18.1°C 59.7°F15.4°C 84% 2.0 mph E3.2 kmh E 3.2 mph5.1 kmh 30.00 in1015.9 mb 0.00 in0.0 mm 0.00 in0.0 mm 0.00 in0.0 mm
05:05 AM 64.8°F18.2°C 59.8°F15.4°C 84% 1.4 mph WSW2.3 kmh WSW 2.7 mph4.3 kmh 30.00 in1015.9 mb 0.00 in0.0 mm 0.00 in0.0 mm 0.00 in0.0 mm
05:10 AM 64.8°F18.2°C 59.6°F15.3°C 83% 1.4 mph S2.3 kmh S 3.2 mph5.1 kmh 30.00 in1015.9 mb 0.00 in0.0 mm 0.00 in0.0 mm 0.00 in0.0 mm
05:15 AM 64.8°F18.2°C 59.5°F15.3°C 83% 1.1 mph SSW1.8 kmh SSW 2.7 mph4.3 kmh 30.00 in1015.9 mb 0.00 in0.0 mm 0.00 in0.0 mm 0.00 in0.0 mm
05:20 AM 64.8°F18.2°C 59.5°F15.3°C 83% 1.5 mph SE2.4 kmh SE 3.2 mph5.1 kmh 30.00 in1015.9 mb 0.00 in0.0 mm 0.00 in0.0 mm 0.00 in0.0 mm
05:25 AM 64.9°F18.3°C 59.6°F15.3°C 83% 2.4 mph SE3.9 kmh SE 3.7 mph6.0 kmh 30.00 in1015.9 mb 0.00 in0.0 mm 0.00 in0.0 mm 0.00 in0.0 mm
05:30 AM 64.9°F18.3°C 59.6°F15.3°C 83% 2.1 mph WSW3.4 kmh WSW 4.7 mph7.6 kmh 30.00 in1015.9 mb 0.00 in0.0 mm 0.00 in0.0 mm 0.00 in0.0 mm
05:35 AM 64.9°F18.3°C 59.6°F15.3°C 83% 1.3 mph SSW2.1 kmh SSW 3.2 mph5.1 kmh 30.00 in1015.9 mb 0.00 in0.0 mm 0.00 in0.0 mm 0.00 in0.0 mm
05:40 AM 65.0°F18.3°C 59.7°F15.4°C 83% 1.7 mph ESE2.7 kmh ESE 3.2 mph5.1 kmh 30.00 in1015.9 mb 0.00 in0.0 mm 0.00 in0.0 mm 0.00 in0.0 mm
05:45 AM 65.1°F18.4°C 59.8°F15.4°C 83% 2.2 mph SSE3.5 kmh SSE 3.7 mph6.0 kmh 30.00 in1015.9 mb 0.00 in0.0 mm 0.00 in0.0 mm 0.00 in0.0 mm
05:50 AM 65.1°F18.4°C 59.8°F15.4°C 83% 1.6 mph SSW2.6 kmh SSW 4.7 mph7.6 kmh 30.00 in1015.9 mb 0.00 in0.0 mm 0.00 in0.0 mm 0.00 in0.0 mm
05:55 AM 65.2°F18.4°C 59.9°F15.5°C 83% 2.6 mph E4.2 kmh E 4.2 mph6.8 kmh 29.99 in1015.6 mb 0.00 in0.0 mm 0.00 in0.0 mm 0.00 in0.0 mm
06:00 AM 65.3°F18.5°C 60.0°F15.6°C 83% 2.1 mph NE3.4 kmh NE 3.2 mph5.1 kmh 29.99 in1015.6 mb 0.00 in0.0 mm 0.00 in0.0 mm 0.00 in0.0 mm
06:05 AM 65.3°F18.5°C 60.0°F15.6°C 83% 1.6 mph E2.6 kmh E 3.7 mph6.0 kmh 29.99 in1015.6 mb 0.00 in0.0 mm 0.00 in0.0 mm 0.00 in0.0 mm
06:10 AM 65.3°F18.5°C 60.2°F15.7°C 84% 1.8 mph SSE2.9 kmh SSE 3.7 mph6.0 kmh 29.99 in1015.6 mb 0.00 in0.0 mm 0.00 in0.0 mm 0.00 in0.0 mm
06:15 AM 65.5°F18.6°C 60.5°F15.8°C 84% 2.0 mph E3.2 kmh E 4.2 mph6.8 kmh 29.99 in1015.6 mb 0.00 in0.0 mm 0.00 in0.0 mm 0.00 in0.0 mm
06:20 AM 65.5°F18.6°C 60.5°F15.8°C 84% 2.0 mph S3.2 kmh S 2.7 mph4.3 kmh 29.99 in1015.6 mb 0.00 in0.0 mm 0.00 in0.0 mm 0.00 in0.0 mm
06:25 AM 65.5°F18.6°C 60.5°F15.8°C 84% 2.3 mph SE3.7 kmh SE 3.7 mph6.0 kmh 29.99 in1015.6 mb 0.00 in0.0 mm 0.00 in0.0 mm 0.00 in0.0 mm
06:30 AM 65.5°F18.6°C 60.5°F15.8°C 84% 3.0 mph SE4.8 kmh SE 5.3 mph8.5 kmh 29.99 in1015.6 mb 0.00 in0.0 mm 0.00 in0.0 mm 0.00 in0.0 mm
06:35 AM 65.5°F18.6°C 60.5°F15.8°C 84% 2.7 mph SE4.3 kmh SE 3.7 mph6.0 kmh 29.99 in1015.6 mb 0.00 in0.0 mm 0.00 in0.0 mm 0.00 in0.0 mm
06:40 AM 65.5°F18.6°C 60.2°F15.7°C 83% 2.4 mph ESE3.9 kmh ESE 4.7 mph7.6 kmh 29.99 in1015.6 mb 0.00 in0.0 mm 0.00 in0.0 mm 0.00 in0.0 mm
06:45 AM 65.6°F18.7°C 60.3°F15.7°C 83% 2.6 mph N4.2 kmh N 4.7 mph7.6 kmh 29.99 in1015.6 mb 0.00 in0.0 mm 0.00 in0.0 mm 0.00 in0.0 mm
06:50 AM 65.7°F18.7°C 60.4°F15.8°C 83% 2.6 mph SE4.2 kmh SE 5.8 mph9.3 kmh 29.98 in1015.2 mb 0.00 in0.0 mm 0.00 in0.0 mm 0.00 in0.0 mm
06:55 AM 65.8°F18.8°C 60.1°F15.6°C 82% 2.8 mph E4.5 kmh E 7.8 mph12.6 kmh 29.98 in1015.2 mb 0.00 in0.0 mm 0.00 in0.0 mm 0.00 in0.0 mm
07:00 AM 66.1°F18.9°C 60.1°F15.6°C 81% 2.5 mph SE4.0 kmh SE 4.2 mph6.8 kmh 29.98 in1015.2 mb 0.00 in0.0 mm 0.00 in0.0 mm 0.00 in0.0 mm
07:05 AM 66.2°F19.0°C 60.2°F15.7°C 81% 2.3 mph SE3.7 kmh SE 3.2 mph5.1 kmh 29.99 in1015.6 mb 0.00 in0.0 mm 0.00 in0.0 mm 0.00 in0.0 mm
07:10 AM 66.4°F19.1°C 60.2°F15.7°C 80% 2.6 mph S4.2 kmh S 3.2 mph5.1 kmh 29.99 in1015.6 mb 0.00 in0.0 mm 0.00 in0.0 mm 0.00 in0.0 mm
07:15 AM 66.6°F19.2°C 60.2°F15.7°C 80% 2.0 mph SE3.2 kmh SE 3.7 mph6.0 kmh 29.99 in1015.6 mb 0.00 in0.0 mm 0.00 in0.0 mm 0.00 in0.0 mm
07:20 AM 66.7°F19.3°C 60.1°F15.6°C 79% 3.3 mph WSW5.3 kmh WSW 6.8 mph10.9 kmh 29.99 in1015.6 mb 0.00 in0.0 mm 0.00 in0.0 mm 0.00 in0.0 mm
07:25 AM 66.8°F19.3°C 60.0°F15.6°C 79% 2.3 mph SSE3.7 kmh SSE 3.2 mph5.1 kmh 29.99 in1015.6 mb 0.00 in0.0 mm 0.00 in0.0 mm 0.00 in0.0 mm
07:30 AM 67.2°F19.6°C 60.1°F15.6°C 78% 2.2 mph E3.5 kmh E 3.7 mph6.0 kmh 29.98 in1015.2 mb 0.00 in0.0 mm 0.00 in0.0 mm 0.00 in0.0 mm
07:35 AM 67.4°F19.7°C 59.8°F15.4°C 77% 3.4 mph SE5.5 kmh SE 7.3 mph11.7 kmh 29.98 in1015.2 mb 0.00 in0.0 mm 0.00 in0.0 mm 0.00 in0.0 mm
07:40 AM 67.6°F19.8°C 59.7°F15.4°C 76% 2.8 mph NE4.5 kmh NE 4.7 mph7.6 kmh 29.98 in1015.2 mb 0.00 in0.0 mm 0.00 in0.0 mm 0.00 in0.0 mm
07:45 AM 67.6°F19.8°C 59.4°F15.2°C 75% 3.7 mph E6.0 kmh E 5.3 mph8.5 kmh 29.98 in1015.2 mb 0.00 in0.0 mm 0.00 in0.0 mm 0.00 in0.0 mm
07:50 AM 68.0°F20.0°C 59.3°F15.2°C 74% 3.0 mph SE4.8 kmh SE 5.3 mph8.5 kmh 29.98 in1015.2 mb 0.00 in0.0 mm 0.00 in0.0 mm 0.00 in0.0 mm
07:55 AM 68.2°F20.1°C 59.6°F15.3°C 74% 3.6 mph E5.8 kmh E 6.3 mph10.1 kmh 29.97 in1014.9 mb 0.00 in0.0 mm 0.00 in0.0 mm 0.00 in0.0 mm
08:00 AM 68.3°F20.2°C 59.6°F15.3°C 74% 3.0 mph S4.8 kmh S 6.8 mph10.9 kmh 29.97 in1014.9 mb 0.00 in0.0 mm 0.00 in0.0 mm 0.00 in0.0 mm
08:05 AM 68.4°F20.2°C 59.4°F15.2°C 73% 2.5 mph SSE4.0 kmh SSE 3.7 mph6.0 kmh 29.98 in1015.2 mb 0.00 in0.0 mm 0.00 in0.0 mm 0.00 in0.0 mm
08:10 AM 68.4°F20.2°C 59.1°F15.1°C 72% 2.3 mph NE3.7 kmh NE 3.7 mph6.0 kmh 29.98 in1015.2 mb 0.00 in0.0 mm 0.00 in0.0 mm 0.00 in0.0 mm
08:15 AM 68.3°F20.2°C 58.9°F14.9°C 72% 2.9 mph E4.7 kmh E 6.3 mph10.1 kmh 29.98 in1015.2 mb 0.00 in0.0 mm 0.00 in0.0 mm 0.00 in0.0 mm
08:20 AM 68.1°F20.1°C 58.7°F14.8°C 72% 3.3 mph E5.3 kmh E 4.7 mph7.6 kmh 29.98 in1015.2 mb 0.00 in0.0 mm 0.00 in0.0 mm 0.00 in0.0 mm
08:25 AM 67.9°F19.9°C 58.6°F14.8°C 72% 2.3 mph ESE3.7 kmh ESE 3.7 mph6.0 kmh 29.97 in1014.9 mb 0.00 in0.0 mm 0.00 in0.0 mm 0.00 in0.0 mm
08:30 AM 68.1°F20.1°C 58.7°F14.8°C 72% 3.5 mph SE5.6 kmh SE 5.3 mph8.5 kmh 29.97 in1014.9 mb 0.00 in0.0 mm 0.00 in0.0 mm 0.00 in0.0 mm
08:35 AM 68.4°F20.2°C 58.6°F14.8°C 71% 3.4 mph SE5.5 kmh SE 6.3 mph10.1 kmh 29.97 in1014.9 mb 0.00 in0.0 mm 0.00 in0.0 mm 0.00 in0.0 mm
08:40 AM 68.4°F20.2°C 58.7°F14.8°C 71% 3.3 mph E5.3 kmh E 5.8 mph9.3 kmh 29.96 in1014.6 mb 0.00 in0.0 mm 0.00 in0.0 mm 0.00 in0.0 mm
08:45 AM 68.5°F20.3°C 58.5°F14.7°C 70% 3.4 mph ENE5.5 kmh ENE 5.3 mph8.5 kmh 29.96 in1014.6 mb 0.00 in0.0 mm 0.00 in0.0 mm 0.00 in0.0 mm
08:50 AM 68.5°F20.3°C 58.3°F14.6°C 70% 2.8 mph WSW4.5 kmh WSW 4.2 mph6.8 kmh 29.96 in1014.6 mb 0.00 in0.0 mm 0.00 in0.0 mm 0.00 in0.0 mm
08:55 AM 68.4°F20.2°C 58.2°F14.6°C 70% 2.8 mph ESE4.5 kmh ESE 4.2 mph6.8 kmh 29.96 in1014.6 mb 0.00 in0.0 mm 0.00 in0.0 mm 0.00 in0.0 mm
09:00 AM 68.4°F20.2°C 58.2°F14.6°C 70% 2.5 mph SE4.0 kmh SE 3.7 mph6.0 kmh 29.96 in1014.6 mb 0.00 in0.0 mm 0.00 in0.0 mm 0.00 in0.0 mm
09:05 AM 68.2°F20.1°C 58.1°F14.5°C 70% 3.4 mph NE5.5 kmh NE 5.8 mph9.3 kmh 29.96 in1014.6 mb 0.00 in0.0 mm 0.00 in0.0 mm 0.00 in0.0 mm
09:10 AM 68.3°F20.2°C 58.1°F14.5°C 70% 2.4 mph E3.9 kmh E 3.2 mph5.1 kmh 29.96 in1014.6 mb 0.00 in0.0 mm 0.00 in0.0 mm 0.00 in0.0 mm
09:15 AM 68.4°F20.2°C 58.3°F14.6°C 70% 3.3 mph SW5.3 kmh SW 7.8 mph12.6 kmh 29.96 in1014.6 mb 0.00 in0.0 mm 0.00 in0.0 mm 0.00 in0.0 mm
09:20 AM 68.4°F20.2°C 58.2°F14.6°C 70% 3.0 mph E4.8 kmh E 5.8 mph9.3 kmh 29.96 in1014.6 mb 0.00 in0.0 mm 0.00 in0.0 mm 0.00 in0.0 mm
09:25 AM 68.5°F20.3°C 58.3°F14.6°C 70% 2.6 mph ESE4.2 kmh ESE 4.2 mph6.8 kmh 29.96 in1014.6 mb 0.00 in0.0 mm 0.00 in0.0 mm 0.00 in0.0 mm
09:30 AM 68.7°F20.4°C 58.2°F14.6°C 69% 2.9 mph S4.7 kmh S 4.2 mph6.8 kmh 29.96 in1014.6 mb 0.00 in0.0 mm 0.00 in0.0 mm 0.00 in0.0 mm
09:35 AM 68.5°F20.3°C 57.9°F14.4°C 69% 3.0 mph SSE4.8 kmh SSE 5.3 mph8.5 kmh 29.96 in1014.6 mb 0.00 in0.0 mm 0.00 in0.0 mm 0.00 in0.0 mm
09:40 AM 68.5°F20.3°C 57.9°F14.4°C 69% 2.8 mph S4.5 kmh S 4.7 mph7.6 kmh 29.95 in1014.2 mb 0.00 in0.0 mm 0.00 in0.0 mm 0.00 in0.0 mm
09:45 AM 68.5°F20.3°C 57.9°F14.4°C 69% 3.2 mph NW5.1 kmh NW 6.3 mph10.1 kmh 29.95 in1014.2 mb 0.00 in0.0 mm 0.00 in0.0 mm 0.00 in0.0 mm
09:50 AM 68.5°F20.3°C 58.0°F14.4°C 69% 3.0 mph E4.8 kmh E 4.7 mph7.6 kmh 29.95 in1014.2 mb 0.00 in0.0 mm 0.00 in0.0 mm 0.00 in0.0 mm
09:55 AM 68.4°F20.2°C 57.5°F14.2°C 68% 3.6 mph W5.8 kmh W 5.3 mph8.5 kmh 29.95 in1014.2 mb 0.00 in0.0 mm 0.00 in0.0 mm 0.00 in0.0 mm
10:00 AM 68.2°F20.1°C 57.6°F14.2°C 69% 2.5 mph N4.0 kmh N 3.7 mph6.0 kmh 29.95 in1014.2 mb 0.00 in0.0 mm 0.00 in0.0 mm 0.00 in0.0 mm
10:05 AM 68.4°F20.2°C 57.8°F14.3°C 69% 2.2 mph SE3.5 kmh SE 4.7 mph7.6 kmh 29.95 in1014.2 mb 0.00 in0.0 mm 0.00 in0.0 mm 0.00 in0.0 mm
10:10 AM 68.4°F20.2°C 57.8°F14.3°C 69% 2.8 mph S4.5 kmh S 3.7 mph6.0 kmh 29.95 in1014.2 mb 0.00 in0.0 mm 0.00 in0.0 mm 0.00 in0.0 mm
10:15 AM 68.4°F20.2°C 57.9°F14.4°C 69% 2.0 mph NE3.2 kmh NE 3.2 mph5.1 kmh 29.94 in1013.9 mb 0.00 in0.0 mm 0.00 in0.0 mm 0.00 in0.0 mm
10:20 AM 68.5°F20.3°C 57.7°F14.3°C 68% 2.6 mph S4.2 kmh S 3.7 mph6.0 kmh 29.94 in1013.9 mb 0.00 in0.0 mm 0.00 in0.0 mm 0.00 in0.0 mm
10:25 AM 68.7°F20.4°C 57.7°F14.3°C 68% 2.7 mph NW4.3 kmh NW 3.7 mph6.0 kmh 29.94 in1013.9 mb 0.00 in0.0 mm 0.00 in0.0 mm 0.00 in0.0 mm
10:30 AM 68.5°F20.3°C 57.5°F14.2°C 68% 3.7 mph NW6.0 kmh NW 7.8 mph12.6 kmh 29.94 in1013.9 mb 0.00 in0.0 mm 0.00 in0.0 mm 0.00 in0.0 mm
10:35 AM 68.2°F20.1°C 57.2°F14.0°C 68% 2.9 mph NE4.7 kmh NE 4.2 mph6.8 kmh 29.94 in1013.9 mb 0.00 in0.0 mm 0.00 in0.0 mm 0.00 in0.0 mm
10:40 AM 68.1°F20.1°C 57.1°F13.9°C 68% 2.9 mph ESE4.7 kmh ESE 4.7 mph7.6 kmh 29.93 in1013.5 mb 0.00 in0.0 mm 0.00 in0.0 mm 0.00 in0.0 mm
10:45 AM 68.0°F20.0°C 57.0°F13.9°C 68% 3.3 mph S5.3 kmh S 5.3 mph8.5 kmh 29.93 in1013.5 mb 0.00 in0.0 mm 0.00 in0.0 mm 0.00 in0.0 mm
10:50 AM 67.7°F19.8°C 57.2°F14.0°C 69% 2.7 mph SE4.3 kmh SE 4.7 mph7.6 kmh 29.93 in1013.5 mb 0.00 in0.0 mm 0.00 in0.0 mm 0.00 in0.0 mm
10:55 AM 67.5°F19.7°C 57.0°F13.9°C 69% 3.1 mph E5.0 kmh E 4.7 mph7.6 kmh 29.93 in1013.5 mb 0.00 in0.0 mm 0.00 in0.0 mm 0.00 in0.0 mm
11:00 AM 67.3°F19.6°C 56.7°F13.7°C 69% 3.4 mph NE5.5 kmh NE 5.3 mph8.5 kmh 29.93 in1013.5 mb 0.00 in0.0 mm 0.00 in0.0 mm 0.00 in0.0 mm
11:05 AM 67.1°F19.5°C 56.2°F13.4°C 68% 3.3 mph S5.3 kmh S 5.3 mph8.5 kmh 29.93 in1013.5 mb 0.00 in0.0 mm 0.00 in0.0 mm 0.00 in0.0 mm
11:10 AM 67.1°F19.5°C 56.2°F13.4°C 68% 2.9 mph NE4.7 kmh NE 5.3 mph8.5 kmh 29.93 in1013.5 mb 0.00 in0.0 mm 0.00 in0.0 mm 0.00 in0.0 mm
11:15 AM 67.0°F19.4°C 56.6°F13.7°C 69% 3.1 mph S5.0 kmh S 6.3 mph10.1 kmh 29.93 in1013.5 mb 0.01 in0.3 mm 0.12 in3.0 mm 0.01 in0.3 mm
11:20 AM 65.7°F18.7°C 57.5°F14.2°C 75% 3.9 mph SSE6.3 kmh SSE 7.8 mph12.6 kmh 29.93 in1013.5 mb 0.02 in0.5 mm 0.12 in3.0 mm 0.02 in0.5 mm
11:25 AM 64.7°F18.2°C 57.6°F14.2°C 78% 3.2 mph S5.1 kmh S 5.8 mph9.3 kmh 29.93 in1013.5 mb 0.03 in0.8 mm 0.12 in3.0 mm 0.03 in0.8 mm
11:30 AM 64.0°F17.8°C 57.9°F14.4°C 81% 2.9 mph SSE4.7 kmh SSE 3.7 mph6.0 kmh 29.94 in1013.9 mb 0.04 in1.0 mm 0.12 in3.0 mm 0.04 in1.0 mm
11:35 AM 63.6°F17.6°C 57.7°F14.3°C 81% 3.3 mph WSW5.3 kmh WSW 4.7 mph7.6 kmh 29.94 in1013.9 mb 0.04 in1.0 mm 0.00 in0.0 mm 0.04 in1.0 mm
11:40 AM 63.4°F17.4°C 57.8°F14.3°C 82% 3.0 mph S4.8 kmh S 4.7 mph7.6 kmh 29.93 in1013.5 mb 0.04 in1.0 mm 0.00 in0.0 mm 0.04 in1.0 mm
11:45 AM 63.3°F17.4°C 57.8°F14.3°C 82% 2.3 mph N3.7 kmh N 4.2 mph6.8 kmh 29.93 in1013.5 mb 0.04 in1.0 mm 0.00 in0.0 mm 0.04 in1.0 mm
11:50 AM 63.3°F17.4°C 58.3°F14.6°C 84% 2.4 mph E3.9 kmh E 3.7 mph6.0 kmh 29.92 in1013.2 mb 0.04 in1.0 mm 0.00 in0.0 mm 0.04 in1.0 mm
11:55 AM 63.3°F17.4°C 58.4°F14.7°C 84% 2.0 mph ESE3.2 kmh ESE 4.7 mph7.6 kmh 29.92 in1013.2 mb 0.04 in1.0 mm 0.00 in0.0 mm 0.04 in1.0 mm
12:00 PM 63.3°F17.4°C 58.5°F14.7°C 84% 1.9 mph SSW3.1 kmh SSW 2.7 mph4.3 kmh 29.92 in1013.2 mb 0.04 in1.0 mm 0.00 in0.0 mm 0.04 in1.0 mm
12:05 PM 63.1°F17.3°C 59.0°F15.0°C 86% 2.6 mph ESE4.2 kmh ESE 3.2 mph5.1 kmh 29.92 in1013.2 mb 0.04 in1.0 mm 0.00 in0.0 mm 0.04 in1.0 mm
12:10 PM 63.1°F17.3°C 59.1°F15.1°C 87% 2.8 mph SW4.5 kmh SW 4.7 mph7.6 kmh 29.92 in1013.2 mb 0.04 in1.0 mm 0.00 in0.0 mm 0.04 in1.0 mm
12:15 PM 63.3°F17.4°C 59.0°F15.0°C 86% 3.4 mph SSE5.5 kmh SSE 5.3 mph8.5 kmh 29.92 in1013.2 mb 0.03 in0.8 mm 0.00 in0.0 mm 0.04 in1.0 mm
12:20 PM 63.3°F17.4°C 59.3°F15.2°C 87% 2.2 mph S3.5 kmh S 3.7 mph6.0 kmh 29.91 in1012.9 mb 0.02 in0.5 mm 0.00 in0.0 mm 0.04 in1.0 mm
12:25 PM 63.3°F17.4°C 59.4°F15.2°C 87% 1.8 mph E2.9 kmh E 2.7 mph4.3 kmh 29.91 in1012.9 mb 0.02 in0.5 mm 0.00 in0.0 mm 0.05 in1.3 mm
12:30 PM 63.3°F17.4°C 59.4°F15.2°C 87% 2.7 mph SE4.3 kmh SE 3.7 mph6.0 kmh 29.91 in1012.9 mb 0.01 in0.3 mm 0.00 in0.0 mm 0.05 in1.3 mm
12:35 PM 63.2°F17.3°C 59.6°F15.3°C 88% 2.3 mph SE3.7 kmh SE 3.7 mph6.0 kmh 29.91 in1012.9 mb 0.04 in1.0 mm 0.36 in9.1 mm 0.08 in2.0 mm
12:40 PM 62.7°F17.1°C 59.7°F15.4°C 90% 2.4 mph S3.9 kmh S 6.8 mph10.9 kmh 29.91 in1012.9 mb 0.19 in4.8 mm 1.80 in45.7 mm 0.23 in5.8 mm
12:45 PM 62.2°F16.8°C 59.6°F15.3°C 91% 2.0 mph S3.2 kmh S 3.7 mph6.0 kmh 29.91 in1012.9 mb 0.23 in5.8 mm 0.48 in12.2 mm 0.27 in6.9 mm
12:50 PM 61.7°F16.5°C 59.3°F15.2°C 92% 3.2 mph E5.1 kmh E 4.7 mph7.6 kmh 29.90 in1012.5 mb 0.24 in6.1 mm 0.12 in3.0 mm 0.28 in7.1 mm
12:55 PM 61.3°F16.3°C 58.9°F14.9°C 92% 2.9 mph SE4.7 kmh SE 4.7 mph7.6 kmh 29.90 in1012.5 mb 0.26 in6.6 mm 0.24 in6.1 mm 0.30 in7.6 mm
01:00 PM 61.3°F16.3°C 59.2°F15.1°C 93% 2.3 mph SE3.7 kmh SE 3.7 mph6.0 kmh 29.90 in1012.5 mb 0.26 in6.6 mm 0.00 in0.0 mm 0.30 in7.6 mm
01:05 PM 61.0°F16.1°C 59.2°F15.1°C 94% 2.6 mph ESE4.2 kmh ESE 4.2 mph6.8 kmh 29.89 in1012.2 mb 0.26 in6.6 mm 0.00 in0.0 mm 0.30 in7.6 mm
01:10 PM 60.8°F16.0°C 59.1°F15.1°C 94% 2.9 mph SSE4.7 kmh SSE 4.2 mph6.8 kmh 29.89 in1012.2 mb 0.28 in7.1 mm 0.24 in6.1 mm 0.32 in8.1 mm
01:15 PM 60.6°F15.9°C 58.8°F14.9°C 94% 2.6 mph SE4.2 kmh SE 4.7 mph7.6 kmh 29.88 in1011.9 mb 0.29 in7.4 mm 0.12 in3.0 mm 0.33 in8.4 mm
01:20 PM 60.4°F15.8°C 58.9°F14.9°C 95% 2.0 mph S3.2 kmh S 4.2 mph6.8 kmh 29.87 in1011.5 mb 0.30 in7.6 mm 0.12 in3.0 mm 0.34 in8.6 mm
01:25 PM 60.4°F15.8°C 58.9°F14.9°C 95% 2.4 mph SSE3.9 kmh SSE 3.7 mph6.0 kmh 29.87 in1011.5 mb 0.30 in7.6 mm 0.00 in0.0 mm 0.35 in8.9 mm
01:30 PM 60.3°F15.7°C 58.9°F14.9°C 95% 2.5 mph ESE4.0 kmh ESE 3.7 mph6.0 kmh 29.86 in1011.2 mb 0.31 in7.9 mm 0.12 in3.0 mm 0.36 in9.1 mm
01:35 PM 60.3°F15.7°C 58.9°F14.9°C 95% 1.9 mph S3.1 kmh S 2.7 mph4.3 kmh 29.86 in1011.2 mb 0.28 in7.1 mm 0.00 in0.0 mm 0.36 in9.1 mm
01:40 PM 60.1°F15.6°C 58.8°F14.9°C 95% 2.3 mph SW3.7 kmh SW 3.2 mph5.1 kmh 29.85 in1010.8 mb 0.13 in3.3 mm 0.00 in0.0 mm 0.36 in9.1 mm
01:45 PM 60.1°F15.6°C 59.0°F15.0°C 96% 1.8 mph SW2.9 kmh SW 4.2 mph6.8 kmh 29.85 in1010.8 mb 0.10 in2.5 mm 0.00 in0.0 mm 0.37 in9.4 mm
01:50 PM 60.1°F15.6°C 59.0°F15.0°C 96% 2.4 mph E3.9 kmh E 4.2 mph6.8 kmh 29.85 in1010.8 mb 0.09 in2.3 mm 0.00 in0.0 mm 0.37 in9.4 mm
01:55 PM 60.1°F15.6°C 59.0°F15.0°C 96% 1.6 mph SE2.6 kmh SE 4.7 mph7.6 kmh 29.85 in1010.8 mb 0.07 in1.8 mm 0.00 in0.0 mm 0.37 in9.4 mm
02:00 PM 60.1°F15.6°C 59.0°F15.0°C 96% 1.5 mph SE2.4 kmh SE 3.7 mph6.0 kmh 29.85 in1010.8 mb 0.07 in1.8 mm 0.00 in0.0 mm 0.37 in9.4 mm
02:05 PM 60.1°F15.6°C 59.0°F15.0°C 96% 2.5 mph S4.0 kmh S 4.7 mph7.6 kmh 29.85 in1010.8 mb 0.08 in2.0 mm 0.12 in3.0 mm 0.38 in9.7 mm
02:10 PM 60.1°F15.6°C 59.0°F15.0°C 96% 3.1 mph ESE5.0 kmh ESE 5.3 mph8.5 kmh 29.85 in1010.8 mb 0.06 in1.5 mm 0.00 in0.0 mm 0.38 in9.7 mm
02:15 PM 60.1°F15.6°C 59.0°F15.0°C 96% 3.2 mph ESE5.1 kmh ESE 4.7 mph7.6 kmh 29.85 in1010.8 mb 0.05 in1.3 mm 0.00 in0.0 mm 0.38 in9.7 mm
02:20 PM 60.2°F15.7°C 58.8°F14.9°C 95% 2.4 mph E3.9 kmh E 5.8 mph9.3 kmh 29.84 in1010.5 mb 0.04 in1.0 mm 0.00 in0.0 mm 0.38 in9.7 mm
02:25 PM 60.3°F15.7°C 59.1°F15.1°C 96% 1.7 mph S2.7 kmh S 4.2 mph6.8 kmh 29.84 in1010.5 mb 0.03 in0.8 mm 0.00 in0.0 mm 0.38 in9.7 mm
02:30 PM 60.3°F15.7°C 59.2°F15.1°C 96% 2.5 mph SE4.0 kmh SE 4.2 mph6.8 kmh 29.84 in1010.5 mb 0.02 in0.5 mm 0.00 in0.0 mm 0.38 in9.7 mm
02:35 PM 60.4°F15.8°C 59.3°F15.2°C 96% 3.1 mph NE5.0 kmh NE 5.3 mph8.5 kmh 29.84 in1010.5 mb 0.02 in0.5 mm 0.00 in0.0 mm 0.38 in9.7 mm
02:40 PM 60.4°F15.8°C 59.2°F15.1°C 96% 3.1 mph S5.0 kmh S 6.8 mph10.9 kmh 29.84 in1010.5 mb 0.02 in0.5 mm 0.00 in0.0 mm 0.38 in9.7 mm
02:45 PM 60.4°F15.8°C 59.0°F15.0°C 95% 2.7 mph S4.3 kmh S 5.3 mph8.5 kmh 29.84 in1010.5 mb 0.01 in0.3 mm 0.00 in0.0 mm 0.38 in9.7 mm
02:50 PM 60.4°F15.8°C 59.0°F15.0°C 95% 3.1 mph ESE5.0 kmh ESE 6.8 mph10.9 kmh 29.84 in1010.5 mb 0.01 in0.3 mm 0.00 in0.0 mm 0.38 in9.7 mm
02:55 PM 60.4°F15.8°C 59.0°F15.0°C 95% 2.2 mph SE3.5 kmh SE 3.2 mph5.1 kmh 29.85 in1010.8 mb 0.01 in0.3 mm 0.00 in0.0 mm 0.38 in9.7 mm
03:00 PM 60.4°F15.8°C 59.0°F15.0°C 95% 3.3 mph ESE5.3 kmh ESE 6.3 mph10.1 kmh 29.85 in1010.8 mb 0.01 in0.3 mm 0.00 in0.0 mm 0.38 in9.7 mm
03:05 PM 60.6°F15.9°C 59.2°F15.1°C 95% 2.8 mph N4.5 kmh N 5.8 mph9.3 kmh 29.84 in1010.5 mb 0.00 in0.0 mm 0.00 in0.0 mm 0.38 in9.7 mm
03:10 PM 60.6°F15.9°C 59.2°F15.1°C 95% 2.8 mph E4.5 kmh E 5.8 mph9.3 kmh 29.84 in1010.5 mb 0.00 in0.0 mm 0.00 in0.0 mm 0.38 in9.7 mm
03:15 PM 60.6°F15.9°C 59.2°F15.1°C 95% 2.9 mph SE4.7 kmh SE 4.7 mph7.6 kmh 29.85 in1010.8 mb 0.00 in0.0 mm 0.00 in0.0 mm 0.38 in9.7 mm
03:20 PM 60.6°F15.9°C 59.2°F15.1°C 95% 3.5 mph E5.6 kmh E 6.8 mph10.9 kmh 29.85 in1010.8 mb 0.00 in0.0 mm 0.00 in0.0 mm 0.38 in9.7 mm
03:25 PM 60.6°F15.9°C 59.2°F15.1°C 95% 3.0 mph WSW4.8 kmh WSW 4.7 mph7.6 kmh 29.84 in1010.5 mb 0.00 in0.0 mm 0.00 in0.0 mm 0.38 in9.7 mm
03:30 PM 60.6°F15.9°C 59.2°F15.1°C 95% 3.9 mph WNW6.3 kmh WNW 7.3 mph11.7 kmh 29.84 in1010.5 mb 0.00 in0.0 mm 0.00 in0.0 mm 0.38 in9.7 mm
03:35 PM 60.6°F15.9°C 59.2°F15.1°C 95% 2.6 mph NE4.2 kmh NE 4.2 mph6.8 kmh 29.84 in1010.5 mb 0.00 in0.0 mm 0.00 in0.0 mm 0.38 in9.7 mm
03:40 PM 60.6°F15.9°C 59.5°F15.3°C 96% 3.5 mph E5.6 kmh E 5.3 mph8.5 kmh 29.84 in1010.5 mb 0.00 in0.0 mm 0.00 in0.0 mm 0.38 in9.7 mm
03:45 PM 60.4°F15.8°C 59.3°F15.2°C 96% 3.3 mph E5.3 kmh E 5.8 mph9.3 kmh 29.84 in1010.5 mb 0.00 in0.0 mm 0.00 in0.0 mm 0.38 in9.7 mm
03:50 PM 60.4°F15.8°C 59.3°F15.2°C 96% 3.2 mph ESE5.1 kmh ESE 5.8 mph9.3 kmh 29.83 in1010.2 mb 0.00 in0.0 mm 0.00 in0.0 mm 0.38 in9.7 mm
03:55 PM 60.4°F15.8°C 59.3°F15.2°C 96% 3.3 mph ESE5.3 kmh ESE 4.7 mph7.6 kmh 29.83 in1010.2 mb 0.00 in0.0 mm 0.00 in0.0 mm 0.38 in9.7 mm
04:00 PM 60.4°F15.8°C 59.3°F15.2°C 96% 3.0 mph SSE4.8 kmh SSE 3.7 mph6.0 kmh 29.83 in1010.2 mb 0.00 in0.0 mm 0.00 in0.0 mm 0.38 in9.7 mm
04:05 PM 60.4°F15.8°C 59.3°F15.2°C 96% 3.7 mph NE6.0 kmh NE 5.8 mph9.3 kmh 29.83 in1010.2 mb 0.01 in0.3 mm 0.12 in3.0 mm 0.39 in9.9 mm
04:10 PM 60.3°F15.7°C 59.2°F15.1°C 96% 3.1 mph N5.0 kmh N 5.3 mph8.5 kmh 29.83 in1010.2 mb 0.01 in0.3 mm 0.00 in0.0 mm 0.39 in9.9 mm
04:15 PM 60.2°F15.7°C 59.0°F15.0°C 96% 3.6 mph S5.8 kmh S 5.3 mph8.5 kmh 29.82 in1009.8 mb 0.01 in0.3 mm 0.00 in0.0 mm 0.39 in9.9 mm
04:20 PM 60.1°F15.6°C 59.0°F15.0°C 96% 3.6 mph SE5.8 kmh SE 5.8 mph9.3 kmh 29.82 in1009.8 mb 0.01 in0.3 mm 0.00 in0.0 mm 0.39 in9.9 mm
04:25 PM 60.1°F15.6°C 58.7°F14.8°C 95% 4.0 mph NE6.4 kmh NE 5.8 mph9.3 kmh 29.81 in1009.5 mb 0.01 in0.3 mm 0.00 in0.0 mm 0.39 in9.9 mm
04:30 PM 60.1°F15.6°C 58.7°F14.8°C 95% 3.2 mph SSE5.1 kmh SSE 4.7 mph7.6 kmh 29.81 in1009.5 mb 0.01 in0.3 mm 0.00 in0.0 mm 0.39 in9.9 mm
04:35 PM 60.1°F15.6°C 58.7°F14.8°C 95% 3.2 mph S5.1 kmh S 4.7 mph7.6 kmh 29.81 in1009.5 mb 0.01 in0.3 mm 0.00 in0.0 mm 0.39 in9.9 mm
04:40 PM 60.2°F15.7°C 58.7°F14.8°C 95% 3.1 mph NW5.0 kmh NW 4.7 mph7.6 kmh 29.81 in1009.5 mb 0.01 in0.3 mm 0.00 in0.0 mm 0.39 in9.9 mm
04:45 PM 60.3°F15.7°C 58.5°F14.7°C 94% 4.1 mph SE6.6 kmh SE 6.8 mph10.9 kmh 29.81 in1009.5 mb 0.01 in0.3 mm 0.00 in0.0 mm 0.39 in9.9 mm
04:50 PM 60.3°F15.7°C 58.3°F14.6°C 93% 4.3 mph NE6.9 kmh NE 7.3 mph11.7 kmh 29.80 in1009.1 mb 0.01 in0.3 mm 0.00 in0.0 mm 0.39 in9.9 mm
04:55 PM 60.3°F15.7°C 58.0°F14.4°C 92% 3.5 mph E5.6 kmh E 5.8 mph9.3 kmh 29.80 in1009.1 mb 0.01 in0.3 mm 0.00 in0.0 mm 0.39 in9.9 mm
05:00 PM 60.3°F15.7°C 57.8°F14.3°C 92% 3.5 mph E5.6 kmh E 7.3 mph11.7 kmh 29.80 in1009.1 mb 0.01 in0.3 mm 0.00 in0.0 mm 0.39 in9.9 mm
05:05 PM 60.3°F15.7°C 57.6°F14.2°C 91% 3.6 mph NNE5.8 kmh NNE 6.3 mph10.1 kmh 29.81 in1009.5 mb 0.00 in0.0 mm 0.00 in0.0 mm 0.39 in9.9 mm
05:10 PM 60.3°F15.7°C 57.4°F14.1°C 90% 3.2 mph SSE5.1 kmh SSE 4.7 mph7.6 kmh 29.81 in1009.5 mb 0.00 in0.0 mm 0.00 in0.0 mm 0.39 in9.9 mm
05:15 PM 60.3°F15.7°C 57.2°F14.0°C 89% 3.9 mph E6.3 kmh E 6.3 mph10.1 kmh 29.81 in1009.5 mb 0.00 in0.0 mm 0.00 in0.0 mm 0.39 in9.9 mm
05:20 PM 60.3°F15.7°C 57.0°F13.9°C 89% 3.6 mph SE5.8 kmh SE 7.3 mph11.7 kmh 29.82 in1009.8 mb 0.00 in0.0 mm 0.00 in0.0 mm 0.39 in9.9 mm
05:25 PM 60.3°F15.7°C 57.0°F13.9°C 89% 3.9 mph NE6.3 kmh NE 6.3 mph10.1 kmh 29.81 in1009.5 mb 0.00 in0.0 mm 0.00 in0.0 mm 0.39 in9.9 mm
05:30 PM 60.1°F15.6°C 56.8°F13.8°C 89% 3.7 mph ENE6.0 kmh ENE 4.7 mph7.6 kmh 29.81 in1009.5 mb 0.00 in0.0 mm 0.00 in0.0 mm 0.39 in9.9 mm
05:35 PM 60.1°F15.6°C 56.8°F13.8°C 89% 3.9 mph NE6.3 kmh NE 6.8 mph10.9 kmh 29.81 in1009.5 mb 0.00 in0.0 mm 0.00 in0.0 mm 0.39 in9.9 mm
05:40 PM 60.3°F15.7°C 57.0°F13.9°C 89% 2.8 mph WSW4.5 kmh WSW 6.3 mph10.1 kmh 29.80 in1009.1 mb 0.00 in0.0 mm 0.00 in0.0 mm 0.39 in9.9 mm
05:45 PM 60.3°F15.7°C 57.0°F13.9°C 89% 4.2 mph NE6.8 kmh NE 8.9 mph14.3 kmh 29.80 in1009.1 mb 0.00 in0.0 mm 0.00 in0.0 mm 0.39 in9.9 mm
05:50 PM 60.3°F15.7°C 57.0°F13.9°C 89% 4.2 mph SW6.8 kmh SW 7.3 mph11.7 kmh 29.80 in1009.1 mb 0.00 in0.0 mm 0.00 in0.0 mm 0.39 in9.9 mm
05:55 PM 60.3°F15.7°C 56.8°F13.8°C 88% 3.1 mph SW5.0 kmh SW 5.3 mph8.5 kmh 29.80 in1009.1 mb 0.00 in0.0 mm 0.00 in0.0 mm 0.39 in9.9 mm
06:00 PM 60.4°F15.8°C 56.8°F13.8°C 88% 3.3 mph S5.3 kmh S 4.7 mph7.6 kmh 29.80 in1009.1 mb 0.00 in0.0 mm 0.00 in0.0 mm 0.39 in9.9 mm
06:05 PM 60.4°F15.8°C 56.8°F13.8°C 88% 3.5 mph ESE5.6 kmh ESE 7.3 mph11.7 kmh 29.80 in1009.1 mb 0.00 in0.0 mm 0.00 in0.0 mm 0.39 in9.9 mm
06:10 PM 60.5°F15.8°C 56.6°F13.7°C 87% 4.3 mph ESE6.9 kmh ESE 8.9 mph14.3 kmh 29.80 in1009.1 mb 0.00 in0.0 mm 0.00 in0.0 mm 0.39 in9.9 mm
06:15 PM 60.6°F15.9°C 56.7°F13.7°C 87% 2.7 mph SW4.3 kmh SW 4.2 mph6.8 kmh 29.79 in1008.8 mb 0.00 in0.0 mm 0.00 in0.0 mm 0.39 in9.9 mm
06:20 PM 60.6°F15.9°C 56.7°F13.7°C 87% 3.0 mph SE4.8 kmh SE 5.8 mph9.3 kmh 29.79 in1008.8 mb 0.00 in0.0 mm 0.00 in0.0 mm 0.39 in9.9 mm
06:25 PM 60.6°F15.9°C 56.7°F13.7°C 87% 2.7 mph SE4.3 kmh SE 4.7 mph7.6 kmh 29.79 in1008.8 mb 0.00 in0.0 mm 0.00 in0.0 mm 0.39 in9.9 mm
06:30 PM 60.6°F15.9°C 56.7°F13.7°C 87% 2.8 mph S4.5 kmh S 5.3 mph8.5 kmh 29.79 in1008.8 mb 0.00 in0.0 mm 0.00 in0.0 mm 0.39 in9.9 mm
06:35 PM 60.6°F15.9°C 56.5°F13.6°C 86% 3.1 mph WSW5.0 kmh WSW 6.3 mph10.1 kmh 29.79 in1008.8 mb 0.00 in0.0 mm 0.00 in0.0 mm 0.39 in9.9 mm
06:40 PM 60.6°F15.9°C 56.4°F13.6°C 86% 3.7 mph E6.0 kmh E 5.8 mph9.3 kmh 29.79 in1008.8 mb 0.00 in0.0 mm 0.00 in0.0 mm 0.39 in9.9 mm
06:45 PM 60.8°F16.0°C 56.6°F13.7°C 86% 2.8 mph NE4.5 kmh NE 5.3 mph8.5 kmh 29.79 in1008.8 mb 0.00 in0.0 mm 0.00 in0.0 mm 0.39 in9.9 mm
06:50 PM 60.8°F16.0°C 56.3°F13.5°C 85% 3.9 mph S6.3 kmh S 6.3 mph10.1 kmh 29.79 in1008.8 mb 0.00 in0.0 mm 0.00 in0.0 mm 0.39 in9.9 mm
06:55 PM 60.8°F16.0°C 55.9°F13.3°C 84% 3.0 mph SE4.8 kmh SE 4.2 mph6.8 kmh 29.79 in1008.8 mb 0.00 in0.0 mm 0.00 in0.0 mm 0.39 in9.9 mm
07:00 PM 60.7°F15.9°C 55.8°F13.2°C 84% 3.8 mph ESE6.1 kmh ESE 6.8 mph10.9 kmh 29.79 in1008.8 mb 0.00 in0.0 mm 0.00 in0.0 mm 0.39 in9.9 mm
07:05 PM 60.6°F15.9°C 55.7°F13.2°C 84% 3.6 mph SE5.8 kmh SE 5.8 mph9.3 kmh 29.80 in1009.1 mb 0.00 in0.0 mm 0.00 in0.0 mm 0.39 in9.9 mm
07:10 PM 60.6°F15.9°C 55.7°F13.2°C 84% 3.9 mph SSW6.3 kmh SSW 6.8 mph10.9 kmh 29.80 in1009.1 mb 0.00 in0.0 mm 0.00 in0.0 mm 0.39 in9.9 mm
07:15 PM 60.5°F15.8°C 55.6°F13.1°C 84% 3.4 mph E5.5 kmh E 6.3 mph10.1 kmh 29.79 in1008.8 mb 0.00 in0.0 mm 0.00 in0.0 mm 0.39 in9.9 mm
07:20 PM 60.4°F15.8°C 55.5°F13.1°C 84% 3.8 mph SE6.1 kmh SE 7.8 mph12.6 kmh 29.79 in1008.8 mb 0.00 in0.0 mm 0.00 in0.0 mm 0.39 in9.9 mm
07:25 PM 60.4°F15.8°C 55.5°F13.1°C 84% 3.6 mph E5.8 kmh E 5.3 mph8.5 kmh 29.79 in1008.8 mb 0.00 in0.0 mm 0.00 in0.0 mm 0.39 in9.9 mm
07:30 PM 60.4°F15.8°C 55.5°F13.1°C 84% 4.0 mph ESE6.4 kmh ESE 7.3 mph11.7 kmh 29.79 in1008.8 mb 0.00 in0.0 mm 0.00 in0.0 mm 0.39 in9.9 mm
07:35 PM 60.4°F15.8°C 55.5°F13.1°C 84% 3.5 mph NNE5.6 kmh NNE 6.3 mph10.1 kmh 29.79 in1008.8 mb 0.00 in0.0 mm 0.00 in0.0 mm 0.39 in9.9 mm
07:40 PM 60.4°F15.8°C 55.5°F13.1°C 84% 3.2 mph E5.1 kmh E 6.3 mph10.1 kmh 29.78 in1008.5 mb 0.00 in0.0 mm 0.00 in0.0 mm 0.39 in9.9 mm
07:45 PM 60.4°F15.8°C 55.5°F13.1°C 84% 3.7 mph NW6.0 kmh NW 7.3 mph11.7 kmh 29.78 in1008.5 mb 0.00 in0.0 mm 0.00 in0.0 mm 0.39 in9.9 mm
07:50 PM 60.4°F15.8°C 55.5°F13.1°C 84% 4.0 mph E6.4 kmh E 5.8 mph9.3 kmh 29.78 in1008.5 mb 0.00 in0.0 mm 0.00 in0.0 mm 0.39 in9.9 mm
07:55 PM 60.5°F15.8°C 55.6°F13.1°C 84% 3.6 mph E5.8 kmh E 6.8 mph10.9 kmh 29.78 in1008.5 mb 0.00 in0.0 mm 0.00 in0.0 mm 0.39 in9.9 mm
08:00 PM 60.6°F15.9°C 55.7°F13.2°C 84% 3.2 mph SSW5.1 kmh SSW 7.3 mph11.7 kmh 29.78 in1008.5 mb 0.00 in0.0 mm 0.00 in0.0 mm 0.39 in9.9 mm
08:05 PM 60.6°F15.9°C 55.6°F13.1°C 83% 2.9 mph E4.7 kmh E 7.3 mph11.7 kmh 29.78 in1008.5 mb 0.00 in0.0 mm 0.00 in0.0 mm 0.39 in9.9 mm
08:10 PM 60.8°F16.0°C 55.6°F13.1°C 83% 3.3 mph SW5.3 kmh SW 6.8 mph10.9 kmh 29.78 in1008.5 mb 0.00 in0.0 mm 0.00 in0.0 mm 0.39 in9.9 mm
08:15 PM 60.8°F16.0°C 55.6°F13.1°C 83% 3.0 mph N4.8 kmh N 6.3 mph10.1 kmh 29.78 in1008.5 mb 0.00 in0.0 mm 0.00 in0.0 mm 0.39 in9.9 mm
08:20 PM 61.0°F16.1°C 55.8°F13.2°C 83% 3.3 mph ESE5.3 kmh ESE 6.3 mph10.1 kmh 29.78 in1008.5 mb 0.00 in0.0 mm 0.00 in0.0 mm 0.39 in9.9 mm
08:25 PM 61.0°F16.1°C 55.8°F13.2°C 83% 2.7 mph ESE4.3 kmh ESE 4.2 mph6.8 kmh 29.78 in1008.5 mb 0.00 in0.0 mm 0.00 in0.0 mm 0.39 in9.9 mm
08:30 PM 61.0°F16.1°C 55.8°F13.2°C 83% 3.1 mph NNE5.0 kmh NNE 4.7 mph7.6 kmh 29.77 in1008.1 mb 0.00 in0.0 mm 0.00 in0.0 mm 0.39 in9.9 mm
08:35 PM 61.1°F16.2°C 55.7°F13.2°C 82% 3.9 mph S6.3 kmh S 6.8 mph10.9 kmh 29.77 in1008.1 mb 0.00 in0.0 mm 0.00 in0.0 mm 0.39 in9.9 mm
08:40 PM 61.2°F16.2°C 55.7°F13.2°C 82% 3.7 mph SSW6.0 kmh SSW 9.4 mph15.1 kmh 29.77 in1008.1 mb 0.00 in0.0 mm 0.00 in0.0 mm 0.39 in9.9 mm
08:45 PM 61.2°F16.2°C 55.5°F13.1°C 82% 4.2 mph W6.8 kmh W 9.4 mph15.1 kmh 29.77 in1008.1 mb 0.00 in0.0 mm 0.00 in0.0 mm 0.39 in9.9 mm
08:50 PM 61.3°F16.3°C 55.4°F13.0°C 81% 4.4 mph ENE7.1 kmh ENE 7.3 mph11.7 kmh 29.77 in1008.1 mb 0.00 in0.0 mm 0.00 in0.0 mm 0.39 in9.9 mm
08:55 PM 61.3°F16.3°C 55.4°F13.0°C 81% 3.5 mph NW5.6 kmh NW 6.3 mph10.1 kmh 29.77 in1008.1 mb 0.00 in0.0 mm 0.00 in0.0 mm 0.39 in9.9 mm
09:00 PM 61.3°F16.3°C 55.4°F13.0°C 81% 4.5 mph SE7.2 kmh SE 7.8 mph12.6 kmh 29.77 in1008.1 mb 0.00 in0.0 mm 0.00 in0.0 mm 0.39 in9.9 mm
09:05 PM 61.5°F16.4°C 55.6°F13.1°C 81% 3.3 mph NE5.3 kmh NE 5.3 mph8.5 kmh 29.77 in1008.1 mb 0.00 in0.0 mm 0.00 in0.0 mm 0.39 in9.9 mm
09:10 PM 61.5°F16.4°C 55.6°F13.1°C 81% 3.5 mph ESE5.6 kmh ESE 6.8 mph10.9 kmh 29.77 in1008.1 mb 0.00 in0.0 mm 0.00 in0.0 mm 0.39 in9.9 mm
09:15 PM 61.5°F16.4°C 55.6°F13.1°C 81% 2.7 mph ESE4.3 kmh ESE 3.7 mph6.0 kmh 29.77 in1008.1 mb 0.00 in0.0 mm 0.00 in0.0 mm 0.39 in9.9 mm
09:20 PM 61.6°F16.4°C 55.7°F13.2°C 81% 3.1 mph SE5.0 kmh SE 4.7 mph7.6 kmh 29.77 in1008.1 mb 0.00 in0.0 mm 0.00 in0.0 mm 0.39 in9.9 mm
09:25 PM 61.7°F16.5°C 55.8°F13.2°C 81% 3.3 mph SE5.3 kmh SE 5.3 mph8.5 kmh 29.77 in1008.1 mb 0.00 in0.0 mm 0.00 in0.0 mm 0.39 in9.9 mm
09:30 PM 61.9°F16.6°C 56.0°F13.3°C 81% 4.0 mph SW6.4 kmh SW 7.3 mph11.7 kmh 29.77 in1008.1 mb 0.00 in0.0 mm 0.00 in0.0 mm 0.39 in9.9 mm
09:35 PM 62.1°F16.7°C 56.2°F13.4°C 81% 3.0 mph S4.8 kmh S 6.3 mph10.1 kmh 29.77 in1008.1 mb 0.00 in0.0 mm 0.00 in0.0 mm 0.39 in9.9 mm
09:40 PM 62.1°F16.7°C 56.2°F13.4°C 81% 2.9 mph ESE4.7 kmh ESE 3.7 mph6.0 kmh 29.77 in1008.1 mb 0.00 in0.0 mm 0.00 in0.0 mm 0.39 in9.9 mm
09:45 PM 62.1°F16.7°C 56.2°F13.4°C 81% 2.8 mph WSW4.5 kmh WSW 4.7 mph7.6 kmh 29.77 in1008.1 mb 0.00 in0.0 mm 0.00 in0.0 mm 0.39 in9.9 mm
09:50 PM 62.1°F16.7°C 56.2°F13.4°C 81% 3.0 mph N4.8 kmh N 5.8 mph9.3 kmh 29.77 in1008.1 mb 0.00 in0.0 mm 0.00 in0.0 mm 0.39 in9.9 mm
09:55 PM 62.1°F16.7°C 56.5°F13.6°C 82% 3.0 mph ESE4.8 kmh ESE 4.7 mph7.6 kmh 29.77 in1008.1 mb 0.00 in0.0 mm 0.00 in0.0 mm 0.39 in9.9 mm
10:00 PM 62.1°F16.7°C 56.5°F13.6°C 82% 3.7 mph ESE6.0 kmh ESE 5.8 mph9.3 kmh 29.77 in1008.1 mb 0.00 in0.0 mm 0.00 in0.0 mm 0.39 in9.9 mm
10:05 PM 62.1°F16.7°C 56.5°F13.6°C 82% 3.5 mph ENE5.6 kmh ENE 5.8 mph9.3 kmh 29.77 in1008.1 mb 0.00 in0.0 mm 0.00 in0.0 mm 0.39 in9.9 mm
10:10 PM 62.1°F16.7°C 56.5°F13.6°C 82% 3.5 mph NW5.6 kmh NW 6.8 mph10.9 kmh 29.77 in1008.1 mb 0.00 in0.0 mm 0.00 in0.0 mm 0.39 in9.9 mm
10:15 PM 62.1°F16.7°C 56.5°F13.6°C 82% 2.4 mph SSE3.9 kmh SSE 4.7 mph7.6 kmh 29.77 in1008.1 mb 0.00 in0.0 mm 0.00 in0.0 mm 0.39 in9.9 mm
10:20 PM 62.1°F16.7°C 56.5°F13.6°C 82% 2.8 mph ESE4.5 kmh ESE 4.7 mph7.6 kmh 29.77 in1008.1 mb 0.00 in0.0 mm 0.00 in0.0 mm 0.39 in9.9 mm
10:25 PM 62.1°F16.7°C 56.5°F13.6°C 82% 3.0 mph NE4.8 kmh NE 5.3 mph8.5 kmh 29.77 in1008.1 mb 0.00 in0.0 mm 0.00 in0.0 mm 0.39 in9.9 mm
10:30 PM 62.1°F16.7°C 56.5°F13.6°C 82% 3.3 mph S5.3 kmh S 5.8 mph9.3 kmh 29.77 in1008.1 mb 0.00 in0.0 mm 0.00 in0.0 mm 0.39 in9.9 mm
10:35 PM 62.1°F16.7°C 56.6°F13.7°C 82% 2.8 mph SE4.5 kmh SE 5.3 mph8.5 kmh 29.77 in1008.1 mb 0.00 in0.0 mm 0.00 in0.0 mm 0.39 in9.9 mm
10:40 PM 62.1°F16.7°C 56.9°F13.8°C 83% 3.3 mph ESE5.3 kmh ESE 6.3 mph10.1 kmh 29.77 in1008.1 mb 0.00 in0.0 mm 0.00 in0.0 mm 0.39 in9.9 mm
10:45 PM 62.2°F16.8°C 57.0°F13.9°C 83% 3.2 mph WSW5.1 kmh WSW 6.3 mph10.1 kmh 29.77 in1008.1 mb 0.00 in0.0 mm 0.00 in0.0 mm 0.39 in9.9 mm
10:50 PM 62.2°F16.8°C 57.0°F13.9°C 83% 2.9 mph NE4.7 kmh NE 3.7 mph6.0 kmh 29.77 in1008.1 mb 0.00 in0.0 mm 0.00 in0.0 mm 0.39 in9.9 mm
10:55 PM 62.2°F16.8°C 57.0°F13.9°C 83% 3.6 mph E5.8 kmh E 7.3 mph11.7 kmh 29.77 in1008.1 mb 0.00 in0.0 mm 0.00 in0.0 mm 0.39 in9.9 mm
11:00 PM 62.2°F16.8°C 57.0°F13.9°C 83% 3.6 mph N5.8 kmh N 8.9 mph14.3 kmh 29.77 in1008.1 mb 0.00 in0.0 mm 0.00 in0.0 mm 0.36 in9.1 mm
11:05 PM 62.2°F16.8°C 56.6°F13.7°C 82% 3.6 mph ESE5.8 kmh ESE 5.8 mph9.3 kmh 29.77 in1008.1 mb 0.00 in0.0 mm 0.00 in0.0 mm 0.36 in9.1 mm
11:10 PM 62.2°F16.8°C 56.6°F13.7°C 82% 3.6 mph SSE5.8 kmh SSE 5.3 mph8.5 kmh 29.77 in1008.1 mb 0.00 in0.0 mm 0.00 in0.0 mm 0.36 in9.1 mm
11:15 PM 62.2°F16.8°C 56.6°F13.7°C 82% 3.3 mph SE5.3 kmh SE 6.3 mph10.1 kmh 29.77 in1008.1 mb 0.00 in0.0 mm 0.00 in0.0 mm 0.36 in9.1 mm
11:20 PM 62.2°F16.8°C 56.6°F13.7°C 82% 4.4 mph NE7.1 kmh NE 8.3 mph13.4 kmh 29.77 in1008.1 mb 0.00 in0.0 mm 0.00 in0.0 mm 0.36 in9.1 mm
11:25 PM 62.2°F16.8°C 56.6°F13.7°C 82% 3.7 mph WNW6.0 kmh WNW 5.3 mph8.5 kmh 29.77 in1008.1 mb 0.00 in0.0 mm 0.00 in0.0 mm 0.36 in9.1 mm
11:30 PM 62.1°F16.7°C 56.5°F13.6°C 82% 4.0 mph E6.4 kmh E 7.3 mph11.7 kmh 29.76 in1007.8 mb 0.00 in0.0 mm 0.00 in0.0 mm 0.36 in9.1 mm
11:35 PM 62.1°F16.7°C 56.5°F13.6°C 82% 4.0 mph E6.4 kmh E 6.3 mph10.1 kmh 29.76 in1007.8 mb 0.00 in0.0 mm 0.00 in0.0 mm 0.36 in9.1 mm
11:40 PM 61.9°F16.6°C 56.3°F13.5°C 82% 3.4 mph SSW5.5 kmh SSW 4.2 mph6.8 kmh 29.76 in1007.8 mb 0.00 in0.0 mm 0.00 in0.0 mm 0.36 in9.1 mm
11:45 PM 61.8°F16.6°C 56.2°F13.4°C 82% 3.7 mph SE6.0 kmh SE 5.8 mph9.3 kmh 29.76 in1007.8 mb 0.00 in0.0 mm 0.00 in0.0 mm 0.36 in9.1 mm
11:50 PM 61.7°F16.5°C 56.1°F13.4°C 82% 3.7 mph WNW6.0 kmh WNW 5.3 mph8.5 kmh 29.75 in1007.5 mb 0.00 in0.0 mm 0.00 in0.0 mm 0.36 in9.1 mm
11:55 PM 61.7°F16.5°C 56.4°F13.6°C 83% 4.0 mph S6.4 kmh S 8.9 mph14.3 kmh 29.75 in1007.5 mb 0.00 in0.0 mm 0.00 in0.0 mm 0.36 in9.1 mm